NJE409 BIRK-LFPB
Flight info
| Callsign | NJE409 |
|---|---|
| Flight time | N/A |
| Altitude | 45000 |
| Route | METIL DCT 60N015W DCT GOMUP/N0422F450 DCT DONIB DCT SOSIM L15 HON UL612 WOD UM605 PETAX UZ296 VELOL |
| Aircraft | C68A/M-SDFGHRWY/SB1 |
Departure
| Time | 2026-04-29 17:00 |
|---|---|
| Airport | Reykjavík Domestic Airport (BIRK) |
Arrival
| Time | N/A |
|---|---|
| Airport | Paris-Le Bourget International Airport (LFPB) |
| Time | Latitude | Longitude | Altitude | Speed | Heading |
|---|---|---|---|---|---|
| 2026-04-29 16:56 | 64.13086 | -21.93447 | 42 ft | 0 kts | 1° |
| 2026-04-29 16:57 | 64.13087 | -21.93447 | 42 ft | 1 kts | 360° |
| 2026-04-29 16:57 | 64.13117 | -21.93514 | 42 ft | 10 kts | 294° |
| 2026-04-29 16:58 | 64.13178 | -21.93562 | 44 ft | 12 kts | 354° |
| 2026-04-29 16:58 | 64.13306 | -21.93585 | 39 ft | 25 kts | 354° |
| 2026-04-29 16:58 | 64.13488 | -21.93621 | 31 ft | 22 kts | 355° |
| 2026-04-29 16:58 | 64.13585 | -21.93696 | 28 ft | 13 kts | 314° |
| 2026-04-29 16:59 | 64.13630 | -21.93843 | 29 ft | 8 kts | 273° |
| 2026-04-29 16:59 | 64.13600 | -21.93887 | 30 ft | 1 kts | 179° |
| 2026-04-29 16:59 | 64.13598 | -21.93887 | 30 ft | 5 kts | 177° |
| 2026-04-29 17:00 | 64.13242 | -21.93828 | 42 ft | 100 kts | 174° |
| 2026-04-29 17:00 | 64.12275 | -21.93616 | 374 ft | 172 kts | 177° |
| 2026-04-29 17:00 | 64.10955 | -21.93309 | 1517 ft | 203 kts | 173° |
| 2026-04-29 17:00 | 64.09553 | -21.92855 | 3113 ft | 206 kts | 175° |
| 2026-04-29 17:01 | 64.08106 | -21.92232 | 4756 ft | 216 kts | 172° |
| 2026-04-29 17:01 | 64.06616 | -21.91527 | 6456 ft | 220 kts | 173° |
| 2026-04-29 17:01 | 64.05116 | -21.90796 | 8132 ft | 219 kts | 173° |
| 2026-04-29 17:01 | 64.03627 | -21.90000 | 9814 ft | 222 kts | 173° |
| 2026-04-29 17:02 | 64.02103 | -21.89210 | 11178 ft | 228 kts | 173° |
| 2026-04-29 17:02 | 64.00555 | -21.88099 | 12521 ft | 241 kts | 164° |
| 2026-04-29 17:02 | 63.99111 | -21.85907 | 13830 ft | 260 kts | 150° |
| 2026-04-29 17:02 | 63.97919 | -21.82624 | 14936 ft | 286 kts | 134° |
| 2026-04-29 17:03 | 63.96863 | -21.78721 | 16000 ft | 291 kts | 137° |
| 2026-04-29 17:03 | 63.95706 | -21.74887 | 17060 ft | 297 kts | 138° |
| 2026-04-29 17:03 | 63.94514 | -21.70985 | 18144 ft | 304 kts | 138° |
| 2026-04-29 17:03 | 63.93297 | -21.66996 | 19066 ft | 310 kts | 138° |
| 2026-04-29 17:04 | 63.92066 | -21.62914 | 19967 ft | 315 kts | 138° |
| 2026-04-29 17:04 | 63.90808 | -21.58797 | 20860 ft | 320 kts | 138° |
| 2026-04-29 17:04 | 63.90587 | -21.58068 | 21016 ft | 321 kts | 138° |
| 2026-04-29 17:05 | 63.88419 | -21.50910 | 22509 ft | 330 kts | 138° |
| 2026-04-29 17:05 | 63.87105 | -21.46593 | 23371 ft | 335 kts | 138° |
| 2026-04-29 17:05 | 63.85770 | -21.42221 | 24083 ft | 339 kts | 138° |
| 2026-04-29 17:05 | 63.84413 | -21.37784 | 24810 ft | 343 kts | 138° |
| 2026-04-29 17:06 | 63.83063 | -21.33377 | 25523 ft | 346 kts | 138° |
| 2026-04-29 17:06 | 63.81678 | -21.28876 | 26217 ft | 349 kts | 138° |
| 2026-04-29 17:06 | 63.80281 | -21.24344 | 26897 ft | 353 kts | 138° |
| 2026-04-29 17:06 | 63.78865 | -21.19759 | 27565 ft | 356 kts | 138° |
| 2026-04-29 17:07 | 63.77434 | -21.15139 | 28234 ft | 360 kts | 138° |
| 2026-04-29 17:07 | 63.77237 | -21.14505 | 28320 ft | 360 kts | 138° |
| 2026-04-29 17:07 | 63.75870 | -21.10092 | 28917 ft | 364 kts | 138° |
| 2026-04-29 17:08 | 63.74425 | -21.05456 | 29537 ft | 368 kts | 138° |
| 2026-04-29 17:08 | 63.72940 | -21.00717 | 30127 ft | 371 kts | 138° |
| 2026-04-29 17:08 | 63.71436 | -20.95943 | 30616 ft | 375 kts | 138° |
| 2026-04-29 17:08 | 64.13086 | -21.93447 | 32 ft | 0 kts | 1° |